createdAt,value
2019-03-20T00:00:43.066Z,37.70
2019-03-20T00:03:29.160Z,37.70
2019-03-20T00:06:16.851Z,37.70
2019-03-20T00:09:05.815Z,37.70
2019-03-20T00:11:52.323Z,37.60
2019-03-20T00:14:38.667Z,37.60
2019-03-20T00:17:25.016Z,37.50
2019-03-20T00:20:12.459Z,37.50
2019-03-20T00:22:58.429Z,37.50
2019-03-20T00:25:44.800Z,37.80
2019-03-20T00:28:31.264Z,37.40
2019-03-20T00:31:17.415Z,37.40
2019-03-20T00:34:03.963Z,37.40
2019-03-20T00:36:50.227Z,37.40
2019-03-20T00:39:36.575Z,37.40
2019-03-20T00:42:22.639Z,37.30
2019-03-20T00:45:10.166Z,37.30
2019-03-20T00:47:56.774Z,37.30
2019-03-20T00:50:42.971Z,37.30
2019-03-20T00:53:29.224Z,37.30
2019-03-20T00:56:15.263Z,37.30
2019-03-20T00:59:01.794Z,37.40
2019-03-20T01:01:48.163Z,37.40
2019-03-20T01:04:34.599Z,37.30
2019-03-20T01:07:21.008Z,37.30
2019-03-20T01:10:09.543Z,37.40
2019-03-20T01:12:55.680Z,37.40
2019-03-20T01:15:42.119Z,37.30
2019-03-20T01:18:28.304Z,37.30
2019-03-20T01:21:14.695Z,37.30
2019-03-20T01:24:01.223Z,37.30
2019-03-20T01:26:47.498Z,37.30
2019-03-20T01:29:33.959Z,37.70
2019-03-20T01:32:20.477Z,37.30
2019-03-20T01:35:06.753Z,37.30
2019-03-20T01:37:53.184Z,37.40
2019-03-20T01:40:40.544Z,37.30
2019-03-20T01:43:27.214Z,37.30
2019-03-20T01:46:14.202Z,37.40
2019-03-20T01:49:00.692Z,37.30
2019-03-20T01:51:47.049Z,37.30
2019-03-20T01:54:33.462Z,37.40
2019-03-20T01:57:21.152Z,37.40
2019-03-20T02:00:07.796Z,37.40
2019-03-20T02:02:54.833Z,37.40
2019-03-20T02:05:41.295Z,37.50
2019-03-20T02:08:27.164Z,37.40
2019-03-20T02:11:13.544Z,37.40
2019-03-20T02:14:00.479Z,37.40
2019-03-20T02:16:46.557Z,37.40
2019-03-20T02:19:33.184Z,37.40
2019-03-20T02:22:19.348Z,37.40
2019-03-20T02:25:05.612Z,37.40
2019-03-20T02:27:51.632Z,37.40
2019-03-20T02:30:38.324Z,37.30
2019-03-20T02:33:24.606Z,37.40
2019-03-20T02:36:11.141Z,37.40
2019-03-20T02:38:57.339Z,37.40
2019-03-20T02:41:44.005Z,37.30
2019-03-20T02:44:30.454Z,37.40
2019-03-20T02:47:16.832Z,37.40
2019-03-20T02:50:03.743Z,37.40
2019-03-20T02:52:49.804Z,37.30
2019-03-20T02:55:35.999Z,37.40
2019-03-20T02:58:22.134Z,37.30
2019-03-20T03:01:08.596Z,37.40
2019-03-20T03:03:55.211Z,37.40
2019-03-20T03:06:41.649Z,37.40
2019-03-20T03:09:28.582Z,37.40
2019-03-20T03:12:14.889Z,37.40
2019-03-20T03:15:01.278Z,37.40
2019-03-20T03:17:47.705Z,37.40
2019-03-20T03:20:34.168Z,37.40
2019-03-20T03:23:20.525Z,37.30
2019-03-20T03:26:06.850Z,37.40
2019-03-20T03:28:53.004Z,37.40
2019-03-20T03:31:39.537Z,37.40
2019-03-20T03:34:25.694Z,37.30
2019-03-20T03:37:12.083Z,37.30
2019-03-20T03:39:58.436Z,37.30
2019-03-20T03:42:45.265Z,37.30
2019-03-20T03:45:31.240Z,37.40
2019-03-20T03:48:17.972Z,37.30
2019-03-20T03:51:04.182Z,37.30
2019-03-20T03:53:50.773Z,37.30
2019-03-20T03:56:37.474Z,37.20
2019-03-20T03:59:24.980Z,37.20
2019-03-20T04:02:11.359Z,37.30
2019-03-20T04:04:58.356Z,37.20
2019-03-20T04:07:44.403Z,37.30
2019-03-20T04:10:30.712Z,37.30
2019-03-20T04:13:17.159Z,37.20
2019-03-20T04:16:03.516Z,37.20
2019-03-20T04:18:49.767Z,37.20
2019-03-20T04:21:36.645Z,37.20
2019-03-20T04:24:22.973Z,37.20
2019-03-20T04:27:09.396Z,37.10
2019-03-20T04:29:55.735Z,37.20
2019-03-20T04:32:42.359Z,37.20
2019-03-20T04:35:28.639Z,37.20
2019-03-20T04:38:15.367Z,37.20
2019-03-20T04:41:01.696Z,37.20
2019-03-20T04:43:48.380Z,37.20
2019-03-20T04:46:34.628Z,37.20
2019-03-20T04:49:21.084Z,37.30
2019-03-20T04:52:07.394Z,37.20
2019-03-20T04:54:53.711Z,37.20
2019-03-20T04:57:40.037Z,37.20
2019-03-20T05:00:26.576Z,37.30
2019-03-20T05:03:13.120Z,37.30
2019-03-20T05:05:59.824Z,37.20
2019-03-20T05:08:46.286Z,37.20
2019-03-20T05:11:32.822Z,37.20
2019-03-20T05:14:19.267Z,37.20
2019-03-20T05:17:05.896Z,37.10
2019-03-20T05:19:52.031Z,37.20
2019-03-20T05:22:38.222Z,37.20
2019-03-20T05:25:24.756Z,37.20
2019-03-20T05:28:10.984Z,37.20
2019-03-20T05:30:57.032Z,37.20
2019-03-20T05:33:43.479Z,37.10
2019-03-20T05:36:29.611Z,37.20
2019-03-20T05:39:16.065Z,37.10
2019-03-20T05:42:02.250Z,37.10
2019-03-20T05:44:48.625Z,37.10
2019-03-20T05:47:34.687Z,37.10
2019-03-20T05:50:21.028Z,37.00
2019-03-20T05:53:07.495Z,37.10
2019-03-20T05:55:55.676Z,37.00
2019-03-20T05:58:41.997Z,37.10
2019-03-20T06:01:28.447Z,37.30
2019-03-20T06:04:14.339Z,37.40
2019-03-20T06:07:00.657Z,37.60
2019-03-20T06:09:46.951Z,37.60
2019-03-20T06:12:33.916Z,37.70
2019-03-20T06:15:20.201Z,37.70
2019-03-20T06:18:06.543Z,37.80
2019-03-20T06:20:52.872Z,38.20
2019-03-20T06:23:39.539Z,38.00
2019-03-20T06:26:27.139Z,38.20
2019-03-20T06:29:13.431Z,38.40
2019-03-20T06:31:59.724Z,38.40
2019-03-20T06:34:46.039Z,38.50
2019-03-20T06:37:33.015Z,38.60
2019-03-20T06:40:19.263Z,38.60
2019-03-20T06:43:05.492Z,38.60
2019-03-20T06:45:51.923Z,38.80
2019-03-20T06:48:38.233Z,38.90
2019-03-20T06:51:24.796Z,39.00
2019-03-20T06:54:11.159Z,39.10
2019-03-20T06:56:57.610Z,38.70
2019-03-20T07:00:27.780Z,38.30
2019-03-20T07:03:27.449Z,38.50
2019-03-20T07:06:22.221Z,38.60
2019-03-20T07:09:25.337Z,38.60
2019-03-20T07:12:11.729Z,38.60
2019-03-20T07:14:58.070Z,38.50
2019-03-20T07:17:44.620Z,38.50
2019-03-20T07:20:31.307Z,38.40
2019-03-20T07:23:17.621Z,38.60
2019-03-20T07:26:04.083Z,38.30
2019-03-20T07:28:50.271Z,38.20
2019-03-20T07:31:36.455Z,38.20
2019-03-20T07:34:22.204Z,38.00
2019-03-20T07:37:09.296Z,38.70
2019-03-20T07:39:55.641Z,38.30
2019-03-20T07:42:42.759Z,38.50
2019-03-20T07:45:29.187Z,38.50
2019-03-20T07:48:22.017Z,38.70
2019-03-20T07:51:04.807Z,38.70
2019-03-20T07:53:51.517Z,38.60
2019-03-20T07:56:37.007Z,38.50
2019-03-20T07:59:23.314Z,38.60
2019-03-20T08:02:09.790Z,38.90
2019-03-20T08:04:56.624Z,38.60
2019-03-20T08:07:42.976Z,38.70
2019-03-20T08:10:29.380Z,38.70
2019-03-20T08:13:15.565Z,38.70
2019-03-20T08:16:03.853Z,38.80
2019-03-20T08:18:49.371Z,38.80
2019-03-20T08:21:35.844Z,38.70
2019-03-20T08:24:22.303Z,38.90
2019-03-20T08:27:08.672Z,38.80
2019-03-20T08:29:54.833Z,38.90
2019-03-20T08:32:41.271Z,39.00
2019-03-20T08:35:27.027Z,39.10
2019-03-20T08:38:18.098Z,39.10
2019-03-20T08:41:01.964Z,39.20
2019-03-20T08:43:49.467Z,39.30
2019-03-20T08:46:35.709Z,39.40
2019-03-20T08:49:22.543Z,39.40
2019-03-20T08:52:08.803Z,39.40
2019-03-20T08:54:55.552Z,39.40
2019-03-20T08:57:41.907Z,39.40
2019-03-20T09:00:28.254Z,39.30
2019-03-20T09:03:14.552Z,39.30
2019-03-20T09:06:00.648Z,39.20
2019-03-20T09:08:46.905Z,39.60
2019-03-20T09:11:33.392Z,39.30
2019-03-20T09:14:19.951Z,39.30
2019-03-20T09:17:06.471Z,39.30
2019-03-20T09:19:52.823Z,39.40
2019-03-20T09:22:40.915Z,39.50
2019-03-20T09:25:26.987Z,40.20
2019-03-20T09:28:13.300Z,39.60
2019-03-20T09:31:00.093Z,39.60
2019-03-20T09:33:46.640Z,39.70
2019-03-20T09:36:42.748Z,39.60
2019-03-20T09:39:21.198Z,39.60
2019-03-20T09:42:07.482Z,39.60
2019-03-20T09:44:53.808Z,39.50
2019-03-20T09:47:40.252Z,39.50
2019-03-20T09:50:26.581Z,39.50
2019-03-20T09:53:13.320Z,39.50
2019-03-20T09:56:01.560Z,39.60
2019-03-20T09:58:48.103Z,39.60
2019-03-20T10:01:35.075Z,39.60
2019-03-20T10:04:21.703Z,39.50
2019-03-20T10:07:09.367Z,39.40
2019-03-20T10:09:57.294Z,39.40
2019-03-20T10:12:43.628Z,39.40
2019-03-20T10:15:29.748Z,39.40
2019-03-20T10:18:16.973Z,39.40
2019-03-20T10:21:03.094Z,39.40
2019-03-20T10:23:49.775Z,39.30
2019-03-20T10:26:36.003Z,39.30
2019-03-20T10:29:22.231Z,39.30
2019-03-20T10:32:08.503Z,39.30
2019-03-20T10:34:54.841Z,39.40
2019-03-20T10:37:41.328Z,39.30
2019-03-20T10:40:27.977Z,39.40
2019-03-20T10:43:15.593Z,39.40
2019-03-20T10:46:02.511Z,39.40
2019-03-20T10:48:48.867Z,39.40
2019-03-20T10:51:35.840Z,39.50
2019-03-20T10:54:22.045Z,39.50
2019-03-20T10:57:08.527Z,39.50
2019-03-20T10:59:54.854Z,39.40
2019-03-20T11:02:41.848Z,39.60
2019-03-20T11:05:27.694Z,39.50
2019-03-20T11:08:14.157Z,39.40
2019-03-20T11:11:00.611Z,39.60
2019-03-20T11:13:46.352Z,39.70
2019-03-20T11:16:32.638Z,39.70
2019-03-20T11:19:19.983Z,39.80
2019-03-20T11:22:06.000Z,40.00
2019-03-20T11:24:52.051Z,40.10
2019-03-20T11:27:38.608Z,40.10
2019-03-20T11:30:25.061Z,40.40
2019-03-20T11:33:11.523Z,40.40
2019-03-20T11:35:58.014Z,40.50
2019-03-20T11:38:44.266Z,40.20
2019-03-20T11:41:30.788Z,40.30
2019-03-20T11:44:17.223Z,40.40
2019-03-20T11:47:03.789Z,40.30
2019-03-20T11:49:51.199Z,40.20
2019-03-20T11:52:38.027Z,40.60
2019-03-20T11:55:24.369Z,40.30
2019-03-20T11:58:10.799Z,40.20
2019-03-20T12:00:57.204Z,40.20
2019-03-20T12:03:44.040Z,40.10
2019-03-20T12:06:30.427Z,40.30
2019-03-20T12:09:16.587Z,40.20
2019-03-20T12:12:03.442Z,40.10
2019-03-20T12:14:50.077Z,40.00
2019-03-20T12:17:36.412Z,40.00
2019-03-20T12:20:22.835Z,39.90
2019-03-20T12:23:09.219Z,39.80
2019-03-20T12:25:55.524Z,39.80
2019-03-20T12:28:41.748Z,39.80
2019-03-20T12:31:28.236Z,39.70
2019-03-20T12:34:14.431Z,39.60
2019-03-20T12:37:01.182Z,39.50
2019-03-20T12:39:53.204Z,39.40
2019-03-20T12:42:47.039Z,39.30
2019-03-20T12:45:33.215Z,39.30
2019-03-20T12:48:19.108Z,39.20
2019-03-20T12:51:05.449Z,39.10
2019-03-20T12:53:52.190Z,39.10
2019-03-20T12:56:38.416Z,39.00
2019-03-20T12:59:24.944Z,39.00
2019-03-20T13:02:11.384Z,39.00
2019-03-20T13:04:58.028Z,39.00
2019-03-20T13:07:44.395Z,39.10
2019-03-20T13:10:30.823Z,38.90
2019-03-20T13:13:17.071Z,38.90
2019-03-20T13:16:03.407Z,38.90
2019-03-20T13:18:49.897Z,38.90
2019-03-20T13:21:36.082Z,38.90
2019-03-20T13:24:22.603Z,38.90
2019-03-20T13:27:09.635Z,38.90
2019-03-20T13:29:55.860Z,38.90
2019-03-20T13:32:41.803Z,38.90
2019-03-20T13:35:28.134Z,38.90
2019-03-20T13:38:14.433Z,38.90
2019-03-20T13:41:01.230Z,38.90
2019-03-20T13:43:47.767Z,38.80
2019-03-20T13:46:33.984Z,38.80
2019-03-20T13:49:20.139Z,38.80
2019-03-20T13:52:06.301Z,38.80
2019-03-20T13:54:52.871Z,38.80
2019-03-20T13:57:39.285Z,38.70
2019-03-20T14:00:25.763Z,38.80
2019-03-20T14:03:12.162Z,38.90
2019-03-20T14:05:58.859Z,38.90
2019-03-20T14:08:45.274Z,39.00
2019-03-20T14:11:32.245Z,39.00
2019-03-20T14:14:18.374Z,39.00
2019-03-20T14:17:04.759Z,39.00
2019-03-20T14:19:51.121Z,39.10
2019-03-20T14:22:37.753Z,39.00
2019-03-20T14:25:25.087Z,38.90
2019-03-20T14:28:11.783Z,38.90
2019-03-20T14:30:59.888Z,39.00
2019-03-20T14:33:46.066Z,38.90
2019-03-20T14:36:33.439Z,38.90
2019-03-20T14:39:19.995Z,38.90
2019-03-20T14:42:06.385Z,38.90
2019-03-20T14:44:52.755Z,38.90
2019-03-20T14:47:42.257Z,38.90
2019-03-20T14:50:28.811Z,38.80
2019-03-20T14:53:14.782Z,38.90
2019-03-20T14:56:02.347Z,38.80
2019-03-20T14:58:50.944Z,39.00
2019-03-20T15:01:43.750Z,39.00
2019-03-20T15:04:30.181Z,38.90
2019-03-20T15:07:16.405Z,39.10
2019-03-20T15:10:03.881Z,39.00
2019-03-20T15:12:50.624Z,39.00
2019-03-20T15:15:43.311Z,39.00
2019-03-20T15:18:29.307Z,39.00
2019-03-20T15:21:15.544Z,39.10
2019-03-20T15:24:02.101Z,39.10
2019-03-20T15:26:48.403Z,39.10
2019-03-20T15:29:34.963Z,39.10
2019-03-20T15:32:22.147Z,39.10
2019-03-20T15:35:08.239Z,39.10
2019-03-20T15:37:54.971Z,39.10
2019-03-20T15:40:41.212Z,39.00
2019-03-20T15:43:27.689Z,39.00
2019-03-20T15:46:14.170Z,39.00
2019-03-20T15:49:00.363Z,39.00
2019-03-20T15:51:49.575Z,39.10
2019-03-20T15:54:35.944Z,39.10
2019-03-20T15:57:22.055Z,39.10
2019-03-20T16:00:12.347Z,39.10
2019-03-20T16:03:01.320Z,39.10
2019-03-20T16:05:47.739Z,39.20
2019-03-20T16:08:34.135Z,39.30
2019-03-20T16:11:20.035Z,39.40
2019-03-20T16:14:06.377Z,39.40
2019-03-20T16:16:52.689Z,39.40
2019-03-20T16:19:39.385Z,39.40
2019-03-20T16:22:25.618Z,39.40
2019-03-20T16:25:13.475Z,39.40
2019-03-20T16:28:00.373Z,39.40
2019-03-20T16:30:46.687Z,39.50
2019-03-20T16:33:32.880Z,39.50
2019-03-20T16:36:19.931Z,39.60
2019-03-20T16:39:07.494Z,39.60
2019-03-20T16:41:53.480Z,39.70
2019-03-20T16:44:41.631Z,39.90
2019-03-20T16:47:27.891Z,40.20
2019-03-20T16:50:15.112Z,40.70
2019-03-20T16:53:01.303Z,41.00
2019-03-20T16:55:47.372Z,41.30
2019-03-20T16:58:34.131Z,41.80
2019-03-20T17:01:20.551Z,41.90
2019-03-20T17:04:06.959Z,42.20
2019-03-20T17:06:54.227Z,42.30
2019-03-20T17:09:40.554Z,42.20
2019-03-20T17:12:26.852Z,43.00
2019-03-20T17:15:18.719Z,42.30
2019-03-20T17:18:05.548Z,42.30
2019-03-20T17:20:51.630Z,42.30
2019-03-20T17:23:38.112Z,42.30
2019-03-20T17:26:24.388Z,42.30
2019-03-20T17:29:10.571Z,42.30
2019-03-20T17:31:58.160Z,42.30
2019-03-20T17:34:44.423Z,42.50
2019-03-20T17:37:30.629Z,42.60
2019-03-20T17:40:17.256Z,42.20
2019-03-20T17:43:03.479Z,42.40
2019-03-20T17:45:49.324Z,42.30
2019-03-20T17:48:35.475Z,42.30
2019-03-20T17:51:21.573Z,42.20
2019-03-20T17:54:07.871Z,42.10
2019-03-20T17:56:53.957Z,42.00
2019-03-20T17:59:40.450Z,42.10
2019-03-20T18:02:26.584Z,42.00
2019-03-20T18:05:12.995Z,41.90
2019-03-20T18:07:59.063Z,41.90
2019-03-20T18:10:45.159Z,41.80
2019-03-20T18:13:31.028Z,42.00
2019-03-20T18:16:19.031Z,42.00
2019-03-20T18:19:05.449Z,42.00
2019-03-20T18:21:51.704Z,41.90
2019-03-20T18:24:37.859Z,41.90
2019-03-20T18:27:25.366Z,41.90
2019-03-20T18:30:19.419Z,41.90
2019-03-20T18:33:05.594Z,41.90
2019-03-20T18:35:51.692Z,41.90
2019-03-20T18:38:38.672Z,42.00
2019-03-20T18:41:25.098Z,41.90
2019-03-20T18:44:12.076Z,41.90
2019-03-20T18:46:58.557Z,41.90
2019-03-20T18:49:46.430Z,42.00
2019-03-20T18:52:32.384Z,42.00
2019-03-20T18:55:19.321Z,42.00
2019-03-20T18:58:05.675Z,42.00
2019-03-20T19:00:52.087Z,41.90
2019-03-20T19:03:40.699Z,42.30
2019-03-20T19:06:27.466Z,41.90
2019-03-20T19:09:13.385Z,41.80
2019-03-20T19:12:08.157Z,41.90
2019-03-20T19:14:48.437Z,41.80
2019-03-20T19:17:34.789Z,41.80
2019-03-20T19:20:21.065Z,41.90
2019-03-20T19:23:07.666Z,41.80
2019-03-20T19:25:53.878Z,41.70
2019-03-20T19:28:40.375Z,41.70
2019-03-20T19:31:26.979Z,41.70
2019-03-20T19:34:13.643Z,41.80
2019-03-20T19:37:00.027Z,41.80
2019-03-20T19:39:46.801Z,41.80
2019-03-20T19:42:32.941Z,41.70
2019-03-20T19:45:18.768Z,41.70
2019-03-20T19:48:05.179Z,41.70
2019-03-20T19:50:51.578Z,41.80
2019-03-20T19:53:37.965Z,41.80
2019-03-20T19:56:24.255Z,42.00
2019-03-20T19:59:10.469Z,42.00
2019-03-20T20:01:56.822Z,41.90
2019-03-20T20:04:43.100Z,41.90
2019-03-20T20:07:29.132Z,41.90
2019-03-20T20:10:15.541Z,41.90
2019-03-20T20:13:01.785Z,41.80
2019-03-20T20:15:48.124Z,41.80
2019-03-20T20:18:34.592Z,41.70
2019-03-20T20:21:20.767Z,41.70
2019-03-20T20:24:06.788Z,41.60
2019-03-20T20:26:53.020Z,41.60
2019-03-20T20:29:38.929Z,41.70
2019-03-20T20:32:25.308Z,41.70
2019-03-20T20:35:12.276Z,41.60
2019-03-20T20:37:58.103Z,41.60
2019-03-20T20:40:44.260Z,41.70
2019-03-20T20:43:30.071Z,41.60
2019-03-20T20:46:16.108Z,41.60
2019-03-20T20:49:02.471Z,41.60
2019-03-20T20:51:49.059Z,41.50
2019-03-20T20:54:35.336Z,41.50
2019-03-20T20:57:21.864Z,41.50
2019-03-20T21:00:16.983Z,41.50
2019-03-20T21:03:03.315Z,41.50
2019-03-20T21:05:49.631Z,41.40
2019-03-20T21:08:36.467Z,41.50
2019-03-20T21:11:22.756Z,41.50
2019-03-20T21:14:09.135Z,41.50
2019-03-20T21:16:57.756Z,41.40
2019-03-20T21:19:44.347Z,41.40
2019-03-20T21:23:27.873Z,41.40
2019-03-20T21:26:15.075Z,41.40
2019-03-20T21:29:38.976Z,41.40
2019-03-20T21:32:34.011Z,41.40
2019-03-20T21:36:04.244Z,41.50
2019-03-20T21:38:51.551Z,41.40
2019-03-20T21:42:41.184Z,41.40
2019-03-20T21:46:11.110Z,41.40
2019-03-20T21:48:58.113Z,41.40
2019-03-20T21:51:44.711Z,41.30
2019-03-20T21:55:18.549Z,41.40
2019-03-20T21:58:16.455Z,41.40
2019-03-20T22:01:44.879Z,41.30
2019-03-20T22:04:32.115Z,41.30
2019-03-20T22:07:19.015Z,41.30
2019-03-20T22:10:51.643Z,41.30
2019-03-20T22:13:48.518Z,41.30
2019-03-20T22:17:18.417Z,41.20
2019-03-20T22:20:58.690Z,41.20
2019-03-20T22:24:29.449Z,41.20
2019-03-20T22:27:55.087Z,41.20
2019-03-20T22:30:43.497Z,41.20
2019-03-20T22:34:06.819Z,41.10
2019-03-20T22:36:53.819Z,41.20
2019-03-20T22:40:37.219Z,41.20
2019-03-20T22:43:30.913Z,41.20
2019-03-20T22:46:49.012Z,41.20
2019-03-20T22:50:15.600Z,41.20
2019-03-20T22:54:08.144Z,41.20
2019-03-20T22:57:09.764Z,41.20
2019-03-20T22:59:56.399Z,41.10
2019-03-20T23:03:04.766Z,41.10
2019-03-20T23:05:51.726Z,41.00
2019-03-20T23:08:39.592Z,41.00
2019-03-20T23:11:26.690Z,41.00
2019-03-20T23:14:13.569Z,41.00
2019-03-20T23:17:00.646Z,40.90
2019-03-20T23:19:48.286Z,40.90
2019-03-20T23:22:36.499Z,41.00
2019-03-20T23:25:23.243Z,40.90
2019-03-20T23:28:10.671Z,40.80
2019-03-20T23:30:57.313Z,40.80
2019-03-20T23:33:44.399Z,40.80
2019-03-20T23:36:31.774Z,40.80
2019-03-20T23:39:18.966Z,40.80
2019-03-20T23:42:06.626Z,40.80
2019-03-20T23:44:54.061Z,40.70
2019-03-20T23:47:49.533Z,40.70
2019-03-20T23:50:37.722Z,40.70
2019-03-20T23:53:25.472Z,40.70
2019-03-20T23:56:12.036Z,40.70
2019-03-20T23:58:59.178Z,40.60
